Chemroad Wing — 3EAB8 — position and weather

sailwx.info

Track history (hours):
 
Tides and Currents Weather Stations Pressure Air Temp Water Temp Dewpoint Dewpoint Depression Visibility Wind Speed Wind Dir Waves Ship Positions

Chemroad Wing

Last reported at 2015-May-28 04:33 UTC. Time now 2015-May-28 14:11 UTC.
Position N 32°08' E 031°06'.

Length 170 m; draft 11.2 m.

Type: Ship (hazmat cat A). MMSI: 357740000.

Date/timePositionNaut miles runAvg speedWind from/ knotsBaromVisibWave heightAir tempDewpointWater temp
2015-May-28 04:33N 32°08' E 031°06'1712.6
2015-May-28 03:11N 32°13' E 030°46'4812.3
2015-May-27 23:14N 32°26' E 029°51'4812.6
2015-May-27 19:27N 32°37' E 028°56'62813.7
2015-May-25 21:31N 35°30' E 016°47'4213.9
2015-May-25 18:31N 35°42' E 015°58'1414.1
2015-May-25 17:31N 35°46' E 015°42'1414.2
2015-May-25 16:32N 35°51' E 015°25'1414.1
2015-May-25 15:33N 35°56' E 015°10'1414.0
2015-May-25 14:33N 36°02' E 014°54'1414.2
2015-May-25 13:34N 36°07' E 014°37'1414.2
2015-May-25 12:33N 36°12' E 014°21'1414.2
2015-May-25 11:34N 36°17' E 014°05'1414.4
2015-May-25 10:34N 36°23' E 013°48'1414.5
2015-May-25 09:33N 36°29' E 013°32'1414.2
2015-May-25 08:33N 36°35' E 013°16'1414.1
2015-May-25 07:33N 36°41' E 012°60'1414.4
2015-May-25 06:33N 36°46' E 012°43'1514.7
2015-May-25 05:33N 36°52' E 012°26'1414.5
2015-May-25 04:33N 36°57' E 012°09'37713.9
2015-May-24 01:28N 37°14' E 004°17'24713.6
2015-May-23 07:20N 36°33' W 000°47'5613.4
2015-May-23 03:11N 36°25' W 001°55'813.0
2015-May-23 02:34N 36°23' W 002°05'1312.9
2015-May-23 01:33N 36°20' W 002°21'1313.0
2015-May-23 00:33N 36°19' W 002°36'12813.5
2015-May-22 15:06N 36°01' W 005°13'713.5
2015-May-22 14:34N 36°03' W 005°22'4 3.4
2015-May-22 13:30N 36°06' W 005°25'0 0.0
2015-May-22 07:33N 36°06' W 005°25'0 0.0
2015-May-22 06:33N 36°06' W 005°25'0 0.1
2015-May-22 05:33N 36°06' W 005°25'0 0.0
2015-May-22 04:33N 36°06' W 005°25'3 2.5
2015-May-22 03:33N 36°04' W 005°23'8 8.3
2015-May-22 02:33N 35°57' W 005°29'1510.4
2015-May-22 01:09N 35°55' W 005°47'  
Track history (hours):
 
Tides and Currents Weather Stations Pressure Air Temp Water Temp Dewpoint Dewpoint Depression Visibility Wind Speed Wind Dir Waves Ship Positions

Chemroad Wing

Last reported at 2015-May-28 04:33 UTC. Time now 2015-May-28 14:11 UTC.
Position N 32°08' E 031°06'.

Length 170 m; draft 11.2 m.

Type: Ship (hazmat cat A). MMSI: 357740000.

Date/timePositionNaut miles runAvg speedWind from/ knotsBaromVisibWave heightAir tempDewpointWater temp
2015-May-28 04:33N 32°08' E 031°06'1712.6
2015-May-28 03:11N 32°13' E 030°46'4812.3
2015-May-27 23:14N 32°26' E 029°51'4812.6
2015-May-27 19:27N 32°37' E 028°56'62813.7
2015-May-25 21:31N 35°30' E 016°47'4213.9
2015-May-25 18:31N 35°42' E 015°58'1414.1
2015-May-25 17:31N 35°46' E 015°42'1414.2
2015-May-25 16:32N 35°51' E 015°25'1414.1
2015-May-25 15:33N 35°56' E 015°10'1414.0
2015-May-25 14:33N 36°02' E 014°54'1414.2
2015-May-25 13:34N 36°07' E 014°37'1414.2
2015-May-25 12:33N 36°12' E 014°21'1414.2
2015-May-25 11:34N 36°17' E 014°05'1414.4
2015-May-25 10:34N 36°23' E 013°48'1414.5
2015-May-25 09:33N 36°29' E 013°32'1414.2
2015-May-25 08:33N 36°35' E 013°16'1414.1
2015-May-25 07:33N 36°41' E 012°60'1414.4
2015-May-25 06:33N 36°46' E 012°43'1514.7
2015-May-25 05:33N 36°52' E 012°26'1414.5
2015-May-25 04:33N 36°57' E 012°09'37713.9
2015-May-24 01:28N 37°14' E 004°17'24713.6
2015-May-23 07:20N 36°33' W 000°47'5613.4
2015-May-23 03:11N 36°25' W 001°55'813.0
2015-May-23 02:34N 36°23' W 002°05'1312.9
2015-May-23 01:33N 36°20' W 002°21'1313.0
2015-May-23 00:33N 36°19' W 002°36'12813.5
2015-May-22 15:06N 36°01' W 005°13'713.5
2015-May-22 14:34N 36°03' W 005°22'4 3.4
2015-May-22 13:30N 36°06' W 005°25'0 0.0
2015-May-22 07:33N 36°06' W 005°25'0 0.0
2015-May-22 06:33N 36°06' W 005°25'0 0.1
2015-May-22 05:33N 36°06' W 005°25'0 0.0
2015-May-22 04:33N 36°06' W 005°25'3 2.5
2015-May-22 03:33N 36°04' W 005°23'8 8.3
2015-May-22 02:33N 35°57' W 005°29'1510.4
2015-May-22 01:09N 35°55' W 005°47'  

Dump ship's entire track history